createdAt,value
2018-08-11T00:01:41.947Z,10.90
2018-08-11T00:04:10.725Z,10.80
2018-08-11T00:06:39.768Z,10.70
2018-08-11T00:09:10.395Z,10.70
2018-08-11T00:11:40.028Z,10.60
2018-08-11T00:14:12.011Z,10.60
2018-08-11T00:16:41.725Z,10.50
2018-08-11T00:19:10.871Z,10.50
2018-08-11T00:21:39.741Z,10.40
2018-08-11T00:24:08.595Z,10.40
2018-08-11T00:26:37.400Z,10.40
2018-08-11T00:29:06.282Z,10.40
2018-08-11T00:31:37.002Z,10.60
2018-08-11T00:34:07.936Z,10.60
2018-08-11T00:36:36.767Z,10.50
2018-08-11T00:39:08.856Z,10.50
2018-08-11T00:41:38.392Z,10.40
2018-08-11T00:44:07.700Z,10.40
2018-08-11T00:46:37.032Z,10.40
2018-08-11T00:49:07.521Z,10.40
2018-08-11T00:51:37.796Z,10.30
2018-08-11T00:54:06.721Z,10.30
2018-08-11T00:56:35.751Z,10.30
2018-08-11T00:59:04.780Z,10.30
2018-08-11T01:01:33.948Z,10.20
2018-08-11T01:04:04.890Z,10.20
2018-08-11T01:06:36.271Z,10.20
2018-08-11T01:09:10.656Z,10.20
2018-08-11T01:11:42.835Z,10.00
2018-08-11T01:14:14.108Z,10.00
2018-08-11T01:16:43.100Z,10.00
2018-08-11T01:19:12.142Z,9.90
2018-08-11T01:21:41.068Z,9.80
2018-08-11T01:24:10.032Z,9.80
2018-08-11T01:26:40.971Z,9.80
2018-08-11T01:29:13.009Z,9.80
2018-08-11T01:31:43.676Z,9.80
2018-08-11T01:34:12.884Z,9.70
2018-08-11T01:36:41.672Z,9.70
2018-08-11T01:39:10.508Z,9.60
2018-08-11T01:41:39.476Z,9.60
2018-08-11T01:44:10.853Z,9.60
2018-08-11T01:46:40.887Z,9.60
2018-08-11T01:49:10.279Z,9.50
2018-08-11T01:51:39.491Z,9.50
2018-08-11T01:54:08.791Z,9.50
2018-08-11T01:56:37.709Z,9.50
2018-08-11T01:59:06.738Z,9.40
2018-08-11T02:01:39.005Z,9.40
2018-08-11T02:04:11.503Z,9.40
2018-08-11T02:06:42.820Z,9.30
2018-08-11T02:09:11.789Z,9.30
2018-08-11T02:11:41.511Z,9.30
2018-08-11T02:14:10.643Z,9.30
2018-08-11T02:16:39.490Z,9.30
2018-08-11T02:19:09.264Z,9.30
2018-08-11T02:21:41.760Z,9.20
2018-08-11T02:24:12.451Z,9.20
2018-08-11T02:26:41.208Z,9.10
2018-08-11T02:29:10.359Z,9.20
2018-08-11T02:31:39.146Z,9.10
2018-08-11T02:34:08.359Z,9.10
2018-08-11T02:36:39.016Z,9.00
2018-08-11T02:39:14.045Z,9.00
2018-08-11T02:41:45.975Z,9.00
2018-08-11T02:44:15.076Z,9.00
2018-08-11T02:46:44.108Z,9.00
2018-08-11T02:49:12.891Z,8.90
2018-08-11T02:51:41.643Z,8.90
2018-08-11T02:54:11.366Z,8.90
2018-08-11T02:56:42.241Z,8.90
2018-08-11T02:59:12.776Z,8.80
2018-08-11T03:01:45.560Z,8.80
2018-08-11T03:04:14.860Z,8.80
2018-08-11T03:06:43.620Z,8.80
2018-08-11T03:09:12.363Z,8.70
2018-08-11T03:11:42.109Z,8.70
2018-08-11T03:14:12.809Z,8.70
2018-08-11T03:16:41.604Z,8.70
2018-08-11T03:19:10.689Z,8.70
2018-08-11T03:21:39.681Z,8.70
2018-08-11T03:24:09.089Z,8.70
2018-08-11T03:26:38.291Z,8.60
2018-08-11T03:29:07.299Z,8.60
2018-08-11T03:31:42.259Z,8.50
2018-08-11T03:34:13.537Z,8.50
2018-08-11T03:36:45.549Z,8.50
2018-08-11T03:39:14.792Z,8.50
2018-08-11T03:41:43.797Z,8.50
2018-08-11T03:44:12.570Z,8.50
2018-08-11T03:46:41.767Z,8.40
2018-08-11T03:49:11.163Z,8.40
2018-08-11T03:51:41.059Z,8.40
2018-08-11T03:54:09.808Z,8.40
2018-08-11T03:56:39.056Z,8.30
2018-08-11T03:59:08.151Z,8.40
2018-08-11T04:01:37.082Z,8.30
2018-08-11T04:04:05.930Z,8.30
2018-08-11T04:06:34.810Z,8.30
2018-08-11T04:09:04.328Z,8.30
2018-08-11T04:11:33.123Z,8.20
2018-08-11T04:14:01.870Z,8.20
2018-08-11T04:16:30.896Z,8.10
2018-08-11T04:18:59.951Z,8.20
2018-08-11T04:21:30.236Z,8.10
2018-08-11T04:23:59.340Z,8.00
2018-08-11T04:26:28.317Z,8.00
2018-08-11T04:28:57.623Z,8.00
2018-08-11T04:31:26.559Z,8.00
2018-08-11T04:33:56.102Z,7.90
2018-08-11T04:36:25.455Z,7.90
2018-08-11T04:38:54.575Z,8.00
2018-08-11T04:41:23.867Z,7.90
2018-08-11T04:43:53.021Z,7.90
2018-08-11T04:46:22.309Z,8.00
2018-08-11T04:48:51.528Z,8.00
2018-08-11T04:51:20.263Z,7.90
2018-08-11T04:53:52.329Z,7.90
2018-08-11T04:56:22.315Z,7.90
2018-08-11T04:58:51.796Z,7.80
2018-08-11T05:01:21.052Z,7.80
2018-08-11T05:03:49.805Z,7.80
2018-08-11T05:06:18.672Z,7.80
2018-08-11T05:08:48.171Z,7.90
2018-08-11T05:11:18.857Z,7.80
2018-08-11T05:13:47.851Z,7.90
2018-08-11T05:16:17.412Z,7.90
2018-08-11T05:18:46.503Z,7.90
2018-08-11T05:21:15.889Z,8.00
2018-08-11T05:23:45.205Z,8.00
2018-08-11T05:26:18.067Z,8.10
2018-08-11T05:28:47.171Z,8.10
2018-08-11T05:31:15.944Z,8.20
2018-08-11T05:33:44.976Z,8.30
2018-08-11T05:36:14.083Z,8.40
2018-08-11T05:38:43.080Z,8.50
2018-08-11T05:41:12.397Z,8.60
2018-08-11T05:43:42.566Z,8.60
2018-08-11T05:46:12.830Z,8.80
2018-08-11T05:48:42.441Z,8.90
2018-08-11T05:51:11.288Z,9.00
2018-08-11T05:53:40.300Z,9.10
2018-08-11T05:56:09.195Z,9.10
2018-08-11T05:58:38.753Z,9.20
2018-08-11T06:01:07.639Z,9.30
2018-08-11T06:03:36.685Z,9.40
2018-08-11T06:06:05.453Z,9.50
2018-08-11T06:08:34.579Z,9.60
2018-08-11T06:11:03.978Z,9.70
2018-08-11T06:13:35.077Z,10.00
2018-08-11T06:16:06.302Z,10.10
2018-08-11T06:18:36.492Z,10.30
2018-08-11T06:21:05.349Z,10.40
2018-08-11T06:23:34.131Z,10.60
2018-08-11T06:26:04.775Z,10.70
2018-08-11T06:28:34.132Z,10.80
2018-08-11T06:31:03.696Z,10.90
2018-08-11T06:33:34.575Z,11.00
2018-08-11T06:36:03.588Z,11.10
2018-08-11T06:38:32.634Z,11.20
2018-08-11T06:41:01.619Z,11.40
2018-08-11T06:43:30.240Z,11.50
2018-08-11T06:46:01.364Z,11.60
2018-08-11T06:48:32.503Z,11.70
2018-08-11T06:51:01.956Z,11.90
2018-08-11T06:53:30.737Z,11.90
2018-08-11T06:55:59.890Z,12.00
2018-08-11T06:58:28.657Z,12.10
2018-08-11T07:00:59.947Z,12.30
2018-08-11T07:03:29.712Z,12.50
2018-08-11T07:05:58.496Z,12.60
2018-08-11T07:08:27.831Z,12.70
2018-08-11T07:10:56.655Z,12.70
2018-08-11T07:13:25.456Z,12.80
2018-08-11T07:15:54.768Z,13.00
2018-08-11T07:18:28.085Z,13.20
2018-08-11T07:20:57.980Z,13.30
2018-08-11T07:23:27.395Z,13.40
2018-08-11T07:25:56.396Z,13.40
2018-08-11T07:28:25.406Z,13.40
2018-08-11T07:30:54.184Z,13.50
2018-08-11T07:33:24.777Z,13.60
2018-08-11T07:35:57.185Z,13.60
2018-08-11T07:38:27.008Z,13.80
2018-08-11T07:40:55.849Z,14.00
2018-08-11T07:43:25.051Z,14.20
2018-08-11T07:45:54.236Z,14.20
2018-08-11T07:48:23.253Z,14.40
2018-08-11T07:50:52.774Z,14.70
2018-08-11T07:53:21.548Z,14.80
2018-08-11T07:55:50.917Z,15.10
2018-08-11T07:58:19.669Z,15.10
2018-08-11T08:00:49.384Z,15.30
2018-08-11T08:03:18.277Z,15.50
2018-08-11T08:05:47.387Z,15.70
2018-08-11T08:08:18.804Z,15.60
2018-08-11T08:10:53.572Z,15.70
2018-08-11T08:13:23.259Z,15.80
2018-08-11T08:15:52.633Z,15.80
2018-08-11T08:18:21.864Z,15.70
2018-08-11T08:20:50.900Z,15.80
2018-08-11T08:23:19.916Z,15.90
2018-08-11T08:25:48.853Z,15.90
2018-08-11T08:28:21.247Z,16.00
2018-08-11T08:30:51.741Z,15.90
2018-08-11T08:33:21.240Z,16.00
2018-08-11T08:35:50.210Z,16.00
2018-08-11T08:38:19.861Z,16.10
2018-08-11T08:40:49.191Z,16.10
2018-08-11T08:43:17.942Z,16.10
2018-08-11T08:45:49.934Z,16.10
2018-08-11T08:48:20.771Z,16.20
2018-08-11T08:50:49.535Z,16.30
2018-08-11T08:53:18.365Z,16.50
2018-08-11T08:55:47.366Z,16.50
2018-08-11T08:58:16.455Z,16.70
2018-08-11T09:00:50.701Z,16.60
2018-08-11T09:03:20.210Z,16.60
2018-08-11T09:05:50.708Z,16.70
2018-08-11T09:08:19.465Z,16.80
2018-08-11T09:10:48.859Z,16.90
2018-08-11T09:13:17.852Z,16.90
2018-08-11T09:15:46.676Z,17.00
2018-08-11T09:18:15.527Z,17.00
2018-08-11T09:20:47.122Z,17.00
2018-08-11T09:23:16.423Z,17.00
2018-08-11T09:25:45.479Z,17.00
2018-08-11T09:28:14.585Z,17.00
2018-08-11T09:30:43.851Z,16.90
2018-08-11T09:33:12.926Z,17.10
2018-08-11T09:35:42.547Z,17.50
2018-08-11T09:38:14.841Z,18.50
2018-08-11T09:40:43.658Z,19.00
2018-08-11T09:43:12.728Z,18.60
2018-08-11T09:45:41.757Z,18.50
2018-08-11T09:48:11.005Z,18.10
2018-08-11T09:50:40.581Z,18.00
2018-08-11T09:53:12.259Z,18.00
2018-08-11T09:55:43.289Z,18.20
2018-08-11T09:58:12.362Z,18.20
2018-08-11T10:00:46.329Z,18.00
2018-08-11T10:03:15.081Z,17.70
2018-08-11T10:05:43.825Z,17.70
2018-08-11T10:08:12.799Z,17.60
2018-08-11T10:10:44.704Z,17.70
2018-08-11T10:13:16.892Z,17.70
2018-08-11T10:15:49.378Z,17.80
2018-08-11T10:18:20.777Z,17.80
2018-08-11T10:20:49.898Z,17.90
2018-08-11T10:23:18.917Z,17.90
2018-08-11T10:25:48.748Z,17.90
2018-08-11T10:28:17.954Z,17.90
2018-08-11T10:30:46.923Z,18.00
2018-08-11T10:33:19.159Z,18.00
2018-08-11T10:35:48.605Z,18.00
2018-08-11T10:38:17.602Z,18.20
2018-08-11T10:40:46.717Z,18.20
2018-08-11T10:43:15.451Z,18.50
2018-08-11T10:45:46.241Z,18.70
2018-08-11T10:48:17.259Z,18.90
2018-08-11T10:50:51.647Z,19.00
2018-08-11T10:53:22.396Z,19.10
2018-08-11T10:55:51.183Z,19.10
2018-08-11T10:58:20.789Z,18.90
2018-08-11T11:00:49.933Z,18.80
2018-08-11T11:03:18.903Z,18.60
2018-08-11T11:05:48.233Z,18.90
2018-08-11T11:08:19.443Z,18.90
2018-08-11T11:10:48.713Z,19.10
2018-08-11T11:13:17.776Z,19.10
2018-08-11T11:15:46.492Z,19.30
2018-08-11T11:18:15.265Z,19.30
2018-08-11T11:20:44.361Z,19.50
2018-08-11T11:23:15.629Z,19.70
2018-08-11T11:25:47.640Z,19.50
2018-08-11T11:28:17.774Z,19.40
2018-08-11T11:30:46.957Z,19.50
2018-08-11T11:33:16.172Z,19.60
2018-08-11T11:35:45.381Z,19.70
2018-08-11T11:38:14.477Z,19.70
2018-08-11T11:40:43.280Z,19.70
2018-08-11T11:43:14.437Z,20.00
2018-08-11T11:45:43.217Z,20.30
2018-08-11T11:48:21.809Z,20.60
2018-08-11T11:50:51.063Z,20.70
2018-08-11T11:53:20.378Z,20.50
2018-08-11T11:55:49.428Z,20.60
2018-08-11T11:58:18.513Z,20.60
2018-08-11T12:00:48.064Z,20.40
2018-08-11T12:03:19.022Z,20.50
2018-08-11T12:05:48.240Z,20.50
2018-08-11T12:08:17.120Z,20.50
2018-08-11T12:10:46.392Z,20.60
2018-08-11T12:13:15.443Z,20.50
2018-08-11T12:15:44.602Z,20.70
2018-08-11T12:18:16.769Z,20.50
2018-08-11T12:20:50.960Z,20.40
2018-08-11T12:23:20.836Z,20.50
2018-08-11T12:25:49.941Z,20.50
2018-08-11T12:28:18.739Z,20.40
2018-08-11T12:30:47.863Z,20.10
2018-08-11T12:33:16.760Z,20.20
2018-08-11T12:35:46.531Z,20.20
2018-08-11T12:38:20.520Z,20.10
2018-08-11T12:40:55.177Z,20.20
2018-08-11T12:43:27.730Z,20.30
2018-08-11T12:45:58.010Z,20.10
2018-08-11T12:48:27.415Z,20.10
2018-08-11T12:50:56.842Z,20.00
2018-08-11T12:53:25.794Z,20.00
2018-08-11T12:55:54.615Z,20.10
2018-08-11T12:58:23.390Z,20.20
2018-08-11T13:00:53.023Z,19.90
2018-08-11T13:03:21.859Z,19.90
2018-08-11T13:05:50.867Z,19.80
2018-08-11T13:08:19.736Z,19.90
2018-08-11T13:10:48.860Z,19.60
2018-08-11T13:13:18.278Z,19.60
2018-08-11T13:15:47.574Z,19.50
2018-08-11T13:18:17.003Z,19.50
2018-08-11T13:20:46.251Z,19.50
2018-08-11T13:23:15.214Z,19.50
2018-08-11T13:25:44.095Z,19.40
2018-08-11T13:28:14.210Z,19.30
2018-08-11T13:30:48.240Z,19.40
2018-08-11T13:33:22.273Z,19.50
2018-08-11T13:35:53.086Z,19.60
2018-08-11T13:38:22.082Z,19.50
2018-08-11T13:40:51.099Z,19.50
2018-08-11T13:43:20.353Z,19.60
2018-08-11T13:45:49.138Z,19.80
2018-08-11T13:48:18.886Z,19.80
2018-08-11T13:50:49.992Z,19.70
2018-08-11T13:53:19.722Z,19.70
2018-08-11T13:55:49.507Z,19.60
2018-08-11T13:58:19.580Z,19.70
2018-08-11T14:00:48.645Z,19.90
2018-08-11T14:03:17.553Z,20.00
2018-08-11T14:05:48.433Z,20.00
2018-08-11T14:08:20.208Z,19.70
2018-08-11T14:10:49.127Z,19.80
2018-08-11T14:13:17.935Z,19.70
2018-08-11T14:15:46.688Z,19.70
2018-08-11T14:18:16.451Z,19.70
2018-08-11T14:20:47.014Z,19.70
2018-08-11T14:23:20.711Z,19.70
2018-08-11T14:25:53.724Z,19.70
2018-08-11T14:28:23.880Z,19.70
2018-08-11T14:30:52.853Z,19.60
2018-08-11T14:33:21.718Z,19.70
2018-08-11T14:35:50.824Z,19.70
2018-08-11T14:38:19.704Z,19.80
2018-08-11T14:40:49.500Z,19.70
2018-08-11T14:43:21.542Z,19.60
2018-08-11T14:45:51.916Z,19.70
2018-08-11T14:48:20.905Z,19.50
2018-08-11T14:50:50.180Z,19.40
2018-08-11T14:53:19.247Z,19.30
2018-08-11T14:55:49.241Z,19.40
2018-08-11T14:58:19.055Z,19.50
2018-08-11T15:00:49.788Z,19.30
2018-08-11T15:03:18.992Z,19.40
2018-08-11T15:05:47.868Z,19.40
2018-08-11T15:08:16.971Z,19.50
2018-08-11T15:10:46.179Z,19.70
2018-08-11T15:13:16.407Z,19.80
2018-08-11T15:15:53.827Z,19.70
2018-08-11T15:18:24.579Z,19.60
2018-08-11T15:20:55.803Z,19.40
2018-08-11T15:23:24.965Z,19.30
2018-08-11T15:25:54.127Z,19.20
2018-08-11T15:28:22.988Z,19.20
2018-08-11T15:30:51.788Z,19.30
2018-08-11T15:33:21.050Z,19.30
2018-08-11T15:35:53.268Z,19.30
2018-08-11T15:38:22.758Z,19.30
2018-08-11T15:40:51.710Z,19.30
2018-08-11T15:43:20.719Z,19.20
2018-08-11T15:45:50.265Z,19.10
2018-08-11T15:48:19.266Z,19.10
2018-08-11T15:50:50.237Z,19.00
2018-08-11T15:53:24.087Z,19.00
2018-08-11T15:55:53.705Z,19.00
2018-08-11T15:58:22.676Z,19.10
2018-08-11T16:00:51.555Z,19.10
2018-08-11T16:03:20.699Z,19.20
2018-08-11T16:05:49.816Z,19.20
2018-08-11T16:08:19.308Z,19.20
2018-08-11T16:10:51.036Z,19.10
2018-08-11T16:13:22.802Z,19.10
2018-08-11T16:15:52.273Z,18.90
2018-08-11T16:18:21.325Z,18.90
2018-08-11T16:20:50.439Z,18.90
2018-08-11T16:23:19.664Z,19.00
2018-08-11T16:25:49.578Z,19.00
2018-08-11T16:28:19.251Z,19.10
2018-08-11T16:30:50.410Z,19.10
2018-08-11T16:33:26.344Z,19.10
2018-08-11T16:35:55.559Z,18.90
2018-08-11T16:38:24.464Z,18.80
2018-08-11T16:40:53.222Z,18.70
2018-08-11T16:43:22.718Z,18.50
2018-08-11T16:45:51.881Z,18.50
2018-08-11T16:48:22.341Z,18.50
2018-08-11T16:50:59.761Z,18.50
2018-08-11T16:53:31.503Z,18.50
2018-08-11T16:56:01.356Z,18.60
2018-08-11T16:58:30.527Z,18.70
2018-08-11T17:00:59.321Z,18.70
2018-08-11T17:03:29.103Z,18.80
2018-08-11T17:05:58.110Z,18.80
2018-08-11T17:08:27.265Z,18.90
2018-08-11T17:11:00.007Z,18.90
2018-08-11T17:13:32.805Z,18.90
2018-08-11T17:16:06.408Z,18.90
2018-08-11T17:18:38.186Z,18.70
2018-08-11T17:21:08.484Z,18.70
2018-08-11T17:23:38.080Z,18.50
2018-08-11T17:26:07.261Z,18.50
2018-08-11T17:28:36.042Z,18.40
2018-08-11T17:31:04.871Z,18.30
2018-08-11T17:33:35.571Z,18.20
2018-08-11T17:36:07.135Z,18.10
2018-08-11T17:38:36.443Z,18.00
2018-08-11T17:41:05.197Z,18.00
2018-08-11T17:43:34.052Z,18.00
2018-08-11T17:46:03.439Z,18.00
2018-08-11T17:48:33.100Z,17.90
2018-08-11T17:51:04.884Z,17.90
2018-08-11T17:53:38.361Z,17.80
2018-08-11T17:56:10.579Z,17.70
2018-08-11T17:58:40.571Z,17.60
2018-08-11T18:01:09.992Z,17.50
2018-08-11T18:03:39.337Z,17.40
2018-08-11T18:06:08.160Z,17.40
2018-08-11T18:08:37.940Z,17.20
2018-08-11T18:11:07.099Z,17.20
2018-08-11T18:13:39.615Z,17.10
2018-08-11T18:16:10.976Z,17.10
2018-08-11T18:18:40.044Z,17.10
2018-08-11T18:21:09.031Z,17.00
2018-08-11T18:23:37.916Z,17.00
2018-08-11T18:26:06.911Z,17.00
2018-08-11T18:28:36.196Z,17.00
2018-08-11T18:31:06.001Z,17.00
2018-08-11T18:33:35.285Z,17.00
2018-08-11T18:36:04.772Z,17.10
2018-08-11T18:38:33.552Z,17.00
2018-08-11T18:41:02.832Z,17.00
2018-08-11T18:43:32.317Z,17.00
2018-08-11T18:46:01.479Z,17.00
2018-08-11T18:48:31.406Z,17.00
2018-08-11T18:51:00.134Z,17.00
2018-08-11T18:53:28.921Z,17.00
2018-08-11T18:55:57.932Z,17.00
2018-08-11T18:58:26.715Z,17.00
2018-08-11T19:00:57.380Z,17.00
2018-08-11T19:03:30.312Z,17.00
2018-08-11T19:06:03.214Z,16.90
2018-08-11T19:08:33.348Z,16.90
2018-08-11T19:11:02.620Z,16.90
2018-08-11T19:13:31.466Z,16.90
2018-08-11T19:16:00.209Z,16.90
2018-08-11T19:18:29.556Z,16.90
2018-08-11T19:21:02.257Z,16.90
2018-08-11T19:23:36.241Z,16.90
2018-08-11T19:26:09.313Z,17.00
2018-08-11T19:28:42.668Z,16.90
2018-08-11T19:31:14.264Z,16.90
2018-08-11T19:33:43.340Z,16.90
2018-08-11T19:36:12.105Z,16.90
2018-08-11T19:38:41.312Z,16.90
2018-08-11T19:41:10.440Z,16.90
2018-08-11T19:43:39.568Z,16.90
2018-08-11T19:46:09.971Z,16.90
2018-08-11T19:48:39.793Z,16.90
2018-08-11T19:51:09.196Z,16.90
2018-08-11T19:53:38.506Z,16.90
2018-08-11T19:56:07.341Z,16.90
2018-08-11T19:58:36.424Z,16.90
2018-08-11T20:01:05.281Z,16.80
2018-08-11T20:03:37.039Z,16.80
2018-08-11T20:06:10.396Z,16.80
2018-08-11T20:08:39.435Z,16.80
2018-08-11T20:11:08.303Z,16.80
2018-08-11T20:13:37.155Z,16.80
2018-08-11T20:16:06.142Z,16.80
2018-08-11T20:18:37.106Z,16.70
2018-08-11T20:21:09.023Z,16.70
2018-08-11T20:23:40.837Z,16.70
2018-08-11T20:26:10.012Z,16.70
2018-08-11T20:28:38.817Z,16.70
2018-08-11T20:31:07.598Z,16.70
2018-08-11T20:33:36.945Z,16.70
2018-08-11T20:36:06.113Z,16.70
2018-08-11T20:38:38.371Z,16.70
2018-08-11T20:41:07.549Z,16.70
2018-08-11T20:43:36.309Z,16.70
2018-08-11T20:46:05.304Z,16.70
2018-08-11T20:48:34.466Z,16.70
2018-08-11T20:51:04.267Z,16.70
2018-08-11T20:53:33.848Z,16.70
2018-08-11T20:56:04.865Z,16.70
2018-08-11T20:58:33.953Z,16.70
2018-08-11T21:01:03.084Z,16.70
2018-08-11T21:03:32.039Z,16.70
2018-08-11T21:06:00.965Z,16.70
2018-08-11T21:08:30.861Z,16.70
2018-08-11T21:11:01.866Z,16.70
2018-08-11T21:13:31.657Z,16.70
2018-08-11T21:16:00.616Z,16.70
2018-08-11T21:18:29.600Z,16.70
2018-08-11T21:20:58.360Z,16.70
2018-08-11T21:23:27.596Z,16.60
2018-08-11T21:25:56.388Z,16.70
2018-08-11T21:28:26.351Z,16.70
2018-08-11T21:30:55.480Z,16.60
2018-08-11T21:33:24.610Z,16.60
2018-08-11T21:35:53.630Z,16.60
2018-08-11T21:38:22.550Z,16.60
2018-08-11T21:40:52.085Z,16.50
2018-08-11T21:43:23.266Z,16.50
2018-08-11T21:45:54.650Z,16.60
2018-08-11T21:48:24.871Z,16.60
2018-08-11T21:50:53.912Z,16.60
2018-08-11T21:53:22.787Z,16.60
2018-08-11T21:55:51.568Z,16.60
2018-08-11T21:58:20.758Z,16.60
2018-08-11T22:00:55.100Z,16.60
2018-08-11T22:03:23.911Z,16.60
2018-08-11T22:05:55.704Z,16.60
2018-08-11T22:08:24.521Z,16.60
2018-08-11T22:10:53.844Z,16.60
2018-08-11T22:13:23.662Z,16.60
2018-08-11T22:15:53.226Z,16.60
2018-08-11T22:18:22.629Z,16.50
2018-08-11T22:20:52.462Z,16.60
2018-08-11T22:23:21.633Z,16.50
2018-08-11T22:25:50.564Z,16.50
2018-08-11T22:28:19.868Z,16.50
2018-08-11T22:30:48.928Z,16.40
2018-08-11T22:33:21.828Z,16.50
2018-08-11T22:35:51.072Z,16.50
2018-08-11T22:38:24.093Z,16.50
2018-08-11T22:40:52.936Z,16.50
2018-08-11T22:43:22.189Z,16.50
2018-08-11T22:45:51.394Z,16.50
2018-08-11T22:48:20.612Z,16.50
2018-08-11T22:50:50.409Z,16.50
2018-08-11T22:53:19.988Z,16.50
2018-08-11T22:55:48.771Z,16.60
2018-08-11T22:58:17.984Z,16.60
2018-08-11T23:00:47.221Z,16.50
2018-08-11T23:03:16.728Z,16.50
2018-08-11T23:05:48.577Z,16.60
2018-08-11T23:08:17.349Z,16.60
2018-08-11T23:10:52.081Z,16.60
2018-08-11T23:13:24.952Z,16.60
2018-08-11T23:15:56.714Z,16.70
2018-08-11T23:18:28.024Z,16.70
2018-08-11T23:20:56.939Z,16.60
2018-08-11T23:23:26.054Z,16.60
2018-08-11T23:25:54.989Z,16.70
2018-08-11T23:28:23.850Z,16.70
2018-08-11T23:30:53.485Z,16.70
2018-08-11T23:33:24.757Z,16.70
2018-08-11T23:35:54.056Z,16.70
2018-08-11T23:38:22.838Z,16.70
2018-08-11T23:40:52.042Z,16.80
2018-08-11T23:43:21.201Z,16.80
2018-08-11T23:45:50.387Z,16.70
2018-08-11T23:48:21.141Z,16.70
2018-08-11T23:50:50.034Z,16.70
2018-08-11T23:53:19.182Z,16.70
2018-08-11T23:55:48.157Z,16.70
2018-08-11T23:58:17.008Z,16.60
